sensor_id;sensor_type;location;lat;lon;timestamp;pressure;altitude;pressure_sealevel;temperature;humidity
69223;BME280;56514;51.816;-0.026;2023-03-03T00:01:13;102190.56;;;7.40;57.53
69223;BME280;56514;51.816;-0.026;2023-03-03T00:04:18;102195.72;;;7.43;57.32
69223;BME280;56514;51.816;-0.026;2023-03-03T00:07:27;102199.16;;;7.45;57.30
69223;BME280;56514;51.816;-0.026;2023-03-03T00:10:32;102197.53;;;7.41;57.43
69223;BME280;56514;51.816;-0.026;2023-03-03T00:13:48;102201.94;;;7.40;57.51
69223;BME280;56514;51.816;-0.026;2023-03-03T00:17:00;102206.31;;;7.40;57.62
69223;BME280;56514;51.816;-0.026;2023-03-03T00:23:37;102209.97;;;7.36;57.59
69223;BME280;56514;51.816;-0.026;2023-03-03T00:26:49;102203.84;;;7.35;57.55
69223;BME280;56514;51.816;-0.026;2023-03-03T00:29:59;102208.22;;;7.35;57.26
69223;BME280;56514;51.816;-0.026;2023-03-03T00:33:21;102205.66;;;7.33;57.53
69223;BME280;56514;51.816;-0.026;2023-03-03T00:39:17;102201.31;;;7.32;57.11
69223;BME280;56514;51.816;-0.026;2023-03-03T00:42:29;102207.47;;;7.31;57.41
69223;BME280;56514;51.816;-0.026;2023-03-03T00:45:32;102205.75;;;7.30;57.49
69223;BME280;56514;51.816;-0.026;2023-03-03T00:48:26;102204.84;;;7.31;57.44
69223;BME280;56514;51.816;-0.026;2023-03-03T00:51:29;102204.03;;;7.29;57.31
69223;BME280;56514;51.816;-0.026;2023-03-03T00:54:14;102204.94;;;7.28;57.59
69223;BME280;56514;51.816;-0.026;2023-03-03T00:56:59;102198.78;;;7.29;57.58
69223;BME280;56514;51.816;-0.026;2023-03-03T00:59:46;102202.28;;;7.30;57.31
69223;BME280;56514;51.816;-0.026;2023-03-03T01:02:31;102206.75;;;7.26;57.54
69223;BME280;56514;51.816;-0.026;2023-03-03T01:05:16;102202.53;;;7.22;57.90
69223;BME280;56514;51.816;-0.026;2023-03-03T01:08:02;102194.78;;;7.18;57.75
69223;BME280;56514;51.816;-0.026;2023-03-03T01:11:05;102198.47;;;7.10;57.85
69223;BME280;56514;51.816;-0.026;2023-03-03T01:13:52;102199.63;;;7.02;58.40
69223;BME280;56514;51.816;-0.026;2023-03-03T01:16:37;102205.94;;;6.95;58.38
69223;BME280;56514;51.816;-0.026;2023-03-03T01:19:22;102212.25;;;6.89;58.47
69223;BME280;56514;51.816;-0.026;2023-03-03T01:22:06;102212.19;;;6.91;58.93
69223;BME280;56514;51.816;-0.026;2023-03-03T01:24:51;102207.81;;;6.91;58.76
69223;BME280;56514;51.816;-0.026;2023-03-03T01:27:36;102202.53;;;6.93;58.71
69223;BME280;56514;51.816;-0.026;2023-03-03T01:30:21;102210.31;;;6.96;58.42
69223;BME280;56514;51.816;-0.026;2023-03-03T01:33:06;102208.56;;;6.95;58.87
69223;BME280;56514;51.816;-0.026;2023-03-03T01:35:51;102213.81;;;6.95;58.31
69223;BME280;56514;51.816;-0.026;2023-03-03T01:38:37;102212.06;;;6.95;58.53
69223;BME280;56514;51.816;-0.026;2023-03-03T01:41:22;102215.56;;;6.96;58.46
69223;BME280;56514;51.816;-0.026;2023-03-03T01:44:12;102219.94;;;6.95;58.36
69223;BME280;56514;51.816;-0.026;2023-03-03T01:47:05;102205.16;;;6.93;58.51
69223;BME280;56514;51.816;-0.026;2023-03-03T01:49:57;102216.72;;;6.86;58.60
69223;BME280;56514;51.816;-0.026;2023-03-03T01:52:46;102206.56;;;6.74;59.01
69223;BME280;56514;51.816;-0.026;2023-03-03T01:55:36;102217.31;;;6.65;59.22
69223;BME280;56514;51.816;-0.026;2023-03-03T01:58:27;102206.13;;;6.58;59.52
69223;BME280;56514;51.816;-0.026;2023-03-03T02:01:16;102210.69;;;6.53;59.19
69223;BME280;56514;51.816;-0.026;2023-03-03T02:04:03;102209.06;;;6.48;59.68
69223;BME280;56514;51.816;-0.026;2023-03-03T02:06:53;102209.31;;;6.39;59.91
69223;BME280;56514;51.816;-0.026;2023-03-03T02:09:58;102211.25;;;6.32;60.18
69223;BME280;56514;51.816;-0.026;2023-03-03T02:12:52;102211.25;;;6.32;59.79
69223;BME280;56514;51.816;-0.026;2023-03-03T02:15:37;102206.03;;;6.31;60.31
69223;BME280;56514;51.816;-0.026;2023-03-03T02:18:22;102209.53;;;6.31;60.18
69223;BME280;56514;51.816;-0.026;2023-03-03T02:21:14;102200.75;;;6.34;60.34
69223;BME280;56514;51.816;-0.026;2023-03-03T02:24:05;102211.22;;;6.34;60.04
69223;BME280;56514;51.816;-0.026;2023-03-03T02:26:52;102218.19;;;6.35;60.22
69223;BME280;56514;51.816;-0.026;2023-03-03T02:29:37;102216.38;;;6.37;59.71
69223;BME280;56514;51.816;-0.026;2023-03-03T02:32:22;102206.69;;;6.39;60.27
69223;BME280;56514;51.816;-0.026;2023-03-03T02:35:27;102218.91;;;6.40;59.98
69223;BME280;56514;51.816;-0.026;2023-03-03T02:41:17;102215.72;;;6.29;60.43
69223;BME280;56514;51.816;-0.026;2023-03-03T02:44:12;102214.09;;;6.23;60.44
69223;BME280;56514;51.816;-0.026;2023-03-03T02:46:58;102217.91;;;6.12;60.61
69223;BME280;56514;51.816;-0.026;2023-03-03T02:49:43;102220.81;;;6.01;60.43
69223;BME280;56514;51.816;-0.026;2023-03-03T02:52:32;102213.13;;;5.95;60.28
69223;BME280;56514;51.816;-0.026;2023-03-03T02:55:16;102215.69;;;5.97;60.48
69223;BME280;56514;51.816;-0.026;2023-03-03T02:58:01;102219.19;;;5.97;60.22
69223;BME280;56514;51.816;-0.026;2023-03-03T03:00:46;102213.06;;;5.97;60.42
69223;BME280;56514;51.816;-0.026;2023-03-03T03:03:31;102210.44;;;5.97;60.46
69223;BME280;56514;51.816;-0.026;2023-03-03T03:06:16;102208.75;;;5.96;60.49
69223;BME280;56514;51.816;-0.026;2023-03-03T03:09:02;102212.28;;;5.93;60.89
69223;BME280;56514;51.816;-0.026;2023-03-03T03:11:48;102207.16;;;5.89;60.68
69223;BME280;56514;51.816;-0.026;2023-03-03T03:14:33;102208.09;;;5.86;60.38
69223;BME280;56514;51.816;-0.026;2023-03-03T03:17:17;102204.69;;;5.83;60.72
69223;BME280;56514;51.816;-0.026;2023-03-03T03:20:02;102209.13;;;5.78;60.94
69223;BME280;56514;51.816;-0.026;2023-03-03T03:22:47;102205.81;;;5.73;60.70
69223;BME280;56514;51.816;-0.026;2023-03-03T03:25:32;102212.03;;;5.67;60.85
69223;BME280;56514;51.816;-0.026;2023-03-03T03:28:17;102211.31;;;5.62;60.86
69223;BME280;56514;51.816;-0.026;2023-03-03T03:31:04;102210.50;;;5.59;61.07
69223;BME280;56514;51.816;-0.026;2023-03-03T03:33:49;102215.84;;;5.54;61.45
69223;BME280;56514;51.816;-0.026;2023-03-03T03:36:35;102212.56;;;5.44;61.31
69223;BME280;56514;51.816;-0.026;2023-03-03T03:39:21;102218.09;;;5.32;61.06
69223;BME280;56514;51.816;-0.026;2023-03-03T03:42:06;102219.28;;;5.19;61.66
69223;BME280;56514;51.816;-0.026;2023-03-03T03:44:51;102217.81;;;5.06;61.70
69223;BME280;56514;51.816;-0.026;2023-03-03T03:47:36;102220.66;;;4.96;62.22
69223;BME280;56514;51.816;-0.026;2023-03-03T03:50:20;102226.00;;;4.90;61.90
69223;BME280;56514;51.816;-0.026;2023-03-03T03:53:06;102228.63;;;4.90;62.09
69223;BME280;56514;51.816;-0.026;2023-03-03T03:55:51;102230.19;;;4.98;62.13
69223;BME280;56514;51.816;-0.026;2023-03-03T03:58:35;102226.56;;;5.05;62.24
69223;BME280;56514;51.816;-0.026;2023-03-03T04:01:20;102225.44;;;5.15;61.59
69223;BME280;56514;51.816;-0.026;2023-03-03T04:04:05;102227.03;;;5.24;61.68
69223;BME280;56514;51.816;-0.026;2023-03-03T04:06:50;102225.91;;;5.34;61.87
69223;BME280;56514;51.816;-0.026;2023-03-03T04:09:34;102228.38;;;5.40;61.61
69223;BME280;56514;51.816;-0.026;2023-03-03T04:12:19;102233.47;;;5.46;61.48
69223;BME280;56514;51.816;-0.026;2023-03-03T04:15:09;102232.50;;;5.50;61.11
69223;BME280;56514;51.816;-0.026;2023-03-03T04:17:54;102235.13;;;5.50;61.38
69223;BME280;56514;51.816;-0.026;2023-03-03T04:20:39;102233.34;;;5.52;61.77
69223;BME280;56514;51.816;-0.026;2023-03-03T04:23:24;102238.47;;;5.57;61.47
69223;BME280;56514;51.816;-0.026;2023-03-03T04:26:09;102232.31;;;5.59;61.58
69223;BME280;56514;51.816;-0.026;2023-03-03T04:28:54;102235.69;;;5.63;61.20
69223;BME280;56514;51.816;-0.026;2023-03-03T04:31:39;102231.28;;;5.65;61.10
69223;BME280;56514;51.816;-0.026;2023-03-03T04:34:23;102226.94;;;5.65;61.45
69223;BME280;56514;51.816;-0.026;2023-03-03T04:37:08;102233.91;;;5.65;61.43
69223;BME280;56514;51.816;-0.026;2023-03-03T04:39:53;102235.59;;;5.67;61.53
69223;BME280;56514;51.816;-0.026;2023-03-03T04:42:38;102241.63;;;5.71;61.22
69223;BME280;56514;51.816;-0.026;2023-03-03T04:45:23;102240.69;;;5.73;61.75
69223;BME280;56514;51.816;-0.026;2023-03-03T04:48:08;102245.00;;;5.76;61.57
69223;BME280;56514;51.816;-0.026;2023-03-03T04:50:53;102243.16;;;5.79;61.40
69223;BME280;56514;51.816;-0.026;2023-03-03T04:53:38;102244.81;;;5.85;61.19
69223;BME280;56514;51.816;-0.026;2023-03-03T04:56:23;102246.41;;;5.90;61.33
69223;BME280;56514;51.816;-0.026;2023-03-03T04:59:07;102244.59;;;5.94;61.50
69223;BME280;56514;51.816;-0.026;2023-03-03T05:01:52;102241.88;;;5.97;61.40
69223;BME280;56514;51.816;-0.026;2023-03-03T05:04:37;102240.19;;;5.96;61.45
69223;BME280;56514;51.816;-0.026;2023-03-03T05:07:22;102246.28;;;5.95;61.19
69223;BME280;56514;51.816;-0.026;2023-03-03T05:10:08;102244.66;;;5.91;61.74
69223;BME280;56514;51.816;-0.026;2023-03-03T05:12:53;102251.69;;;5.89;61.75
69223;BME280;56514;51.816;-0.026;2023-03-03T05:15:38;102243.00;;;5.87;61.75
69223;BME280;56514;51.816;-0.026;2023-03-03T05:18:24;102243.91;;;5.86;61.97
69223;BME280;56514;51.816;-0.026;2023-03-03T05:21:10;102245.72;;;5.82;62.09
69223;BME280;56514;51.816;-0.026;2023-03-03T05:23:55;102246.59;;;5.81;62.21
69223;BME280;56514;51.816;-0.026;2023-03-03T05:26:40;102247.50;;;5.80;62.65
69223;BME280;56514;51.816;-0.026;2023-03-03T05:29:25;102241.34;;;5.83;62.43
69223;BME280;56514;51.816;-0.026;2023-03-03T05:32:12;102243.97;;;5.81;62.65
69223;BME280;56514;51.816;-0.026;2023-03-03T05:34:57;102244.88;;;5.82;62.80
69223;BME280;56514;51.816;-0.026;2023-03-03T05:37:42;102236.16;;;5.80;62.61
69223;BME280;56514;51.816;-0.026;2023-03-03T05:40:30;102247.50;;;5.80;62.56
69223;BME280;56514;51.816;-0.026;2023-03-03T05:43:16;102243.09;;;5.81;62.36
69223;BME280;56514;51.816;-0.026;2023-03-03T05:46:01;102249.22;;;5.81;62.75
69223;BME280;56514;51.816;-0.026;2023-03-03T05:48:46;102241.41;;;5.80;62.73
69223;BME280;56514;51.816;-0.026;2023-03-03T05:51:31;102240.50;;;5.81;62.58
69223;BME280;56514;51.816;-0.026;2023-03-03T05:54:16;102238.84;;;5.77;62.66
69223;BME280;56514;51.816;-0.026;2023-03-03T05:57:00;102233.66;;;5.75;62.74
69223;BME280;56514;51.816;-0.026;2023-03-03T05:59:45;102238.13;;;5.70;63.00
69223;BME280;56514;51.816;-0.026;2023-03-03T06:02:30;102233.81;;;5.69;62.91
69223;BME280;56514;51.816;-0.026;2023-03-03T06:05:15;102239.03;;;5.69;62.88
69223;BME280;56514;51.816;-0.026;2023-03-03T06:07:59;102237.44;;;5.64;63.83
69223;BME280;56514;51.816;-0.026;2023-03-03T06:10:45;102237.50;;;5.61;64.03
69223;BME280;56514;51.816;-0.026;2023-03-03T06:13:30;102242.75;;;5.61;63.50
69223;BME280;56514;51.816;-0.026;2023-03-03T06:16:15;102240.13;;;5.61;64.00
69223;BME280;56514;51.816;-0.026;2023-03-03T06:18:59;102242.69;;;5.64;64.02
69223;BME280;56514;51.816;-0.026;2023-03-03T06:21:45;102246.06;;;5.67;64.36
69223;BME280;56514;51.816;-0.026;2023-03-03T06:24:30;102248.63;;;5.69;64.76
69223;BME280;56514;51.816;-0.026;2023-03-03T06:27:15;102246.84;;;5.71;64.53
69223;BME280;56514;51.816;-0.026;2023-03-03T06:30:00;102248.56;;;5.72;64.29
69223;BME280;56514;51.816;-0.026;2023-03-03T06:32:45;102249.41;;;5.74;64.39
69223;BME280;56514;51.816;-0.026;2023-03-03T06:35:31;102256.25;;;5.79;64.15
69223;BME280;56514;51.816;-0.026;2023-03-03T06:38:15;102252.75;;;5.82;64.02
69223;BME280;56514;51.816;-0.026;2023-03-03T06:41:00;102255.31;;;5.83;64.25
69223;BME280;56514;51.816;-0.026;2023-03-03T06:43:48;102257.06;;;5.83;64.63
69223;BME280;56514;51.816;-0.026;2023-03-03T06:46:33;102257.06;;;5.83;64.89
69223;BME280;56514;51.816;-0.026;2023-03-03T06:49:18;102263.13;;;5.85;64.55
69223;BME280;56514;51.816;-0.026;2023-03-03T06:52:15;102263.88;;;5.90;64.40
69223;BME280;56514;51.816;-0.026;2023-03-03T06:55:10;102264.56;;;5.98;64.27
69223;BME280;56514;51.816;-0.026;2023-03-03T06:57:55;102266.13;;;6.05;63.96
69223;BME280;56514;51.816;-0.026;2023-03-03T07:00:47;102267.66;;;6.13;63.64
69223;BME280;56514;51.816;-0.026;2023-03-03T07:03:34;102270.09;;;6.21;63.53
69223;BME280;56514;51.816;-0.026;2023-03-03T07:06:21;102275.19;;;6.25;63.39
69223;BME280;56514;51.816;-0.026;2023-03-03T07:09:23;102273.34;;;6.30;63.37
69223;BME280;56514;51.816;-0.026;2023-03-03T07:12:20;102274.13;;;6.34;63.18
69223;BME280;56514;51.816;-0.026;2023-03-03T07:17:55;102276.53;;;6.41;63.07
69223;BME280;56514;51.816;-0.026;2023-03-03T07:20:44;102274.75;;;6.42;63.12
69223;BME280;56514;51.816;-0.026;2023-03-03T07:23:37;102286.91;;;6.46;63.29
69223;BME280;56514;51.816;-0.026;2023-03-03T07:26:32;102281.66;;;6.46;63.20
69223;BME280;56514;51.816;-0.026;2023-03-03T07:29:26;102286.88;;;6.47;63.55
69223;BME280;56514;51.816;-0.026;2023-03-03T07:32:33;102286.91;;;6.46;63.11
69223;BME280;56514;51.816;-0.026;2023-03-03T07:38:34;102291.25;;;6.47;63.45
69223;BME280;56514;51.816;-0.026;2023-03-03T07:41:21;102292.81;;;6.52;62.99
69223;BME280;56514;51.816;-0.026;2023-03-03T07:44:20;102294.38;;;6.61;63.15
69223;BME280;56514;51.816;-0.026;2023-03-03T07:47:30;102297.56;;;6.70;62.55
69223;BME280;56514;51.816;-0.026;2023-03-03T07:50:21;102300.03;;;6.78;62.24
69223;BME280;56514;51.816;-0.026;2023-03-03T07:53:31;102297.84;;;6.92;62.25
69223;BME280;56514;51.816;-0.026;2023-03-03T07:56:30;102299.59;;;6.93;62.26
69223;BME280;56514;51.816;-0.026;2023-03-03T07:59:23;102309.00;;;7.00;61.86
69223;BME280;56514;51.816;-0.026;2023-03-03T08:03:01;102314.03;;;7.07;61.62
69223;BME280;56514;51.816;-0.026;2023-03-03T08:05:41;102318.19;;;7.16;61.37
69223;BME280;56514;51.816;-0.026;2023-03-03T08:08:34;102323.25;;;7.22;61.04
69223;BME280;56514;51.816;-0.026;2023-03-03T08:11:20;102320.41;;;7.30;60.91
69223;BME280;56514;51.816;-0.026;2023-03-03T08:14:15;102323.72;;;7.35;61.14
69223;BME280;56514;51.816;-0.026;2023-03-03T08:17:06;102330.59;;;7.40;60.38
69223;BME280;56514;51.816;-0.026;2023-03-03T08:19:57;102322.56;;;7.45;60.59
69223;BME280;56514;51.816;-0.026;2023-03-03T08:22:43;102326.81;;;7.49;60.19
69223;BME280;56514;51.816;-0.026;2023-03-03T08:25:27;102332.13;;;7.47;60.18
69223;BME280;56514;51.816;-0.026;2023-03-03T08:28:13;102334.59;;;7.52;60.21
69223;BME280;56514;51.816;-0.026;2023-03-03T08:30:58;102331.16;;;7.50;59.53
69223;BME280;56514;51.816;-0.026;2023-03-03T08:33:45;102335.56;;;7.49;59.49
69223;BME280;56514;51.816;-0.026;2023-03-03T08:36:30;102337.28;;;7.50;59.07
69223;BME280;56514;51.816;-0.026;2023-03-03T08:39:15;102333.03;;;7.46;59.54
69223;BME280;56514;51.816;-0.026;2023-03-03T08:42:00;102335.56;;;7.49;59.30
69223;BME280;56514;51.816;-0.026;2023-03-03T08:44:45;102338.94;;;7.54;58.79
69223;BME280;56514;51.816;-0.026;2023-03-03T08:47:30;102330.78;;;7.63;58.67
69223;BME280;56514;51.816;-0.026;2023-03-03T08:50:16;102329.91;;;7.63;58.36
69223;BME280;56514;51.816;-0.026;2023-03-03T08:53:01;102333.31;;;7.66;58.12
69223;BME280;56514;51.816;-0.026;2023-03-03T08:55:46;102334.63;;;7.79;58.05
69223;BME280;56514;51.816;-0.026;2023-03-03T08:58:32;102335.06;;;7.93;58.23
69223;BME280;56514;51.816;-0.026;2023-03-03T09:01:16;102343.53;;;8.03;57.17
69223;BME280;56514;51.816;-0.026;2023-03-03T09:04:01;102341.69;;;8.05;57.06
69223;BME280;56514;51.816;-0.026;2023-03-03T09:06:46;102341.50;;;8.11;57.18
69223;BME280;56514;51.816;-0.026;2023-03-03T09:09:31;102337.56;;;8.25;56.89
69223;BME280;56514;51.816;-0.026;2023-03-03T09:12:40;102337.34;;;8.31;56.01
69223;BME280;56514;51.816;-0.026;2023-03-03T09:15:31;102335.34;;;8.39;56.25
69223;BME280;56514;51.816;-0.026;2023-03-03T09:18:44;102345.66;;;8.45;55.55
69223;BME280;56514;51.816;-0.026;2023-03-03T09:21:33;102341.06;;;8.50;55.33
69223;BME280;56514;51.816;-0.026;2023-03-03T09:24:29;102331.16;;;8.58;54.52
69223;BME280;56514;51.816;-0.026;2023-03-03T09:27:28;102330.03;;;8.65;54.03
69223;BME280;56514;51.816;-0.026;2023-03-03T09:30:42;102335.09;;;8.71;53.39
69223;BME280;56514;51.816;-0.026;2023-03-03T09:33:42;102344.00;;;8.92;53.86
69223;BME280;56514;51.816;-0.026;2023-03-03T09:36:37;102344.03;;;9.15;53.52
69223;BME280;56514;51.816;-0.026;2023-03-03T09:39:24;102340.97;;;9.27;53.08
69223;BME280;56514;51.816;-0.026;2023-03-03T09:42:36;102340.69;;;9.35;52.07
69223;BME280;56514;51.816;-0.026;2023-03-03T09:48:51;102345.78;;;9.62;51.85
69223;BME280;56514;51.816;-0.026;2023-03-03T09:51:55;102352.38;;;9.51;50.46
69223;BME280;56514;51.816;-0.026;2023-03-03T09:54:55;102353.56;;;9.65;51.62
69223;BME280;56514;51.816;-0.026;2023-03-03T10:03:51;102364.41;;;10.02;49.96
69223;BME280;56514;51.816;-0.026;2023-03-03T10:06:47;102353.84;;;10.24;50.40
69223;BME280;56514;51.816;-0.026;2023-03-03T10:10:32;102356.34;;;10.48;49.59
69223;BME280;56514;51.816;-0.026;2023-03-03T10:13:19;102359.00;;;10.68;49.32
69223;BME280;56514;51.816;-0.026;2023-03-03T10:19:11;102366.72;;;10.73;49.06
69223;BME280;56514;51.816;-0.026;2023-03-03T10:22:18;102367.78;;;10.69;49.20
69223;BME280;56514;51.816;-0.026;2023-03-03T10:25:09;102368.66;;;10.90;49.21
69223;BME280;56514;51.816;-0.026;2023-03-03T10:42:31;102383.41;;;10.32;51.29
69223;BME280;56514;51.816;-0.026;2023-03-03T10:48:55;102383.25;;;10.36;51.35
69223;BME280;56514;51.816;-0.026;2023-03-03T10:52:02;102384.09;;;10.37;50.97
69223;BME280;56514;51.816;-0.026;2023-03-03T11:22:16;102386.16;;;11.12;48.90
69223;BME280;56514;51.816;-0.026;2023-03-03T11:25:23;102392.00;;;11.19;48.30
69223;BME280;56514;51.816;-0.026;2023-03-03T11:31:25;102394.34;;;11.65;48.50
69223;BME280;56514;51.816;-0.026;2023-03-03T11:43:44;102395.69;;;11.73;47.76
69223;BME280;56514;51.816;-0.026;2023-03-03T11:46:45;102390.31;;;11.56;48.02
69223;BME280;56514;51.816;-0.026;2023-03-03T11:49:36;102394.09;;;11.31;47.84
69223;BME280;56514;51.816;-0.026;2023-03-03T11:52:52;102406.69;;;11.06;48.66
69223;BME280;56514;51.816;-0.026;2023-03-03T11:55:41;102399.91;;;10.58;49.80
69223;BME280;56514;51.816;-0.026;2023-03-03T11:58:30;102398.78;;;9.99;52.44
69223;BME280;56514;51.816;-0.026;2023-03-03T12:05:07;102405.38;;;9.42;54.21
69223;BME280;56514;51.816;-0.026;2023-03-03T12:08:21;102403.19;;;9.30;54.89
69223;BME280;56514;51.816;-0.026;2023-03-03T12:23:38;102395.84;;;9.15;55.22
69223;BME280;56514;51.816;-0.026;2023-03-03T12:26:49;102392.41;;;9.13;55.05
69223;BME280;56514;51.816;-0.026;2023-03-03T12:29:52;102389.41;;;9.23;55.26
69223;BME280;56514;51.816;-0.026;2023-03-03T12:33:10;102390.13;;;9.27;55.05
69223;BME280;56514;51.816;-0.026;2023-03-03T12:36:30;102386.16;;;9.40;55.09
69223;BME280;56514;51.816;-0.026;2023-03-03T12:39:36;102374.47;;;9.47;54.32
69223;BME280;56514;51.816;-0.026;2023-03-03T12:42:58;102373.88;;;9.62;54.19
69223;BME280;56514;51.816;-0.026;2023-03-03T12:46:18;102369.81;;;9.76;54.01
69223;BME280;56514;51.816;-0.026;2023-03-03T12:49:04;102371.06;;;9.89;53.48
69223;BME280;56514;51.816;-0.026;2023-03-03T12:54:59;102367.34;;;9.95;52.54
69223;BME280;56514;51.816;-0.026;2023-03-03T12:57:57;102362.19;;;10.13;52.98
69223;BME280;56514;51.816;-0.026;2023-03-03T13:03:55;102358.66;;;10.36;51.08
69223;BME280;56514;51.816;-0.026;2023-03-03T13:12:41;102355.38;;;10.51;51.49
69223;BME280;56514;51.816;-0.026;2023-03-03T13:15:41;102350.22;;;10.48;50.25
69223;BME280;56514;51.816;-0.026;2023-03-03T13:21:52;102349.00;;;10.97;49.40
69223;BME280;56514;51.816;-0.026;2023-03-03T13:25:18;102343.91;;;11.12;49.33
69223;BME280;56514;51.816;-0.026;2023-03-03T13:28:32;102340.50;;;11.29;48.76
69223;BME280;56514;51.816;-0.026;2023-03-03T13:31:21;102344.38;;;11.20;47.79
69223;BME280;56514;51.816;-0.026;2023-03-03T13:34:16;102351.28;;;11.04;47.82
69223;BME280;56514;51.816;-0.026;2023-03-03T13:40:20;102347.44;;;10.91;47.96
69223;BME280;56514;51.816;-0.026;2023-03-03T13:43:31;102342.72;;;10.99;47.76
69223;BME280;56514;51.816;-0.026;2023-03-03T13:49:35;102330.13;;;11.24;46.87
69223;BME280;56514;51.816;-0.026;2023-03-03T13:52:31;102331.97;;;11.22;46.63
69223;BME280;56514;51.816;-0.026;2023-03-03T13:55:31;102340.78;;;11.23;46.93
69223;BME280;56514;51.816;-0.026;2023-03-03T14:04:53;102339.34;;;10.55;48.08
69223;BME280;56514;51.816;-0.026;2023-03-03T14:11:14;102335.69;;;10.16;50.06
69223;BME280;56514;51.816;-0.026;2023-03-03T14:14:46;102329.88;;;9.87;50.53
69223;BME280;56514;51.816;-0.026;2023-03-03T14:20:50;102333.88;;;10.18;50.84
69223;BME280;56514;51.816;-0.026;2023-03-03T14:23:50;102324.38;;;10.14;50.92
69223;BME280;56514;51.816;-0.026;2023-03-03T14:26:54;102333.25;;;10.12;51.88
69223;BME280;56514;51.816;-0.026;2023-03-03T14:29:42;102331.31;;;9.94;52.86
69223;BME280;56514;51.816;-0.026;2023-03-03T14:32:29;102333.34;;;9.66;54.46
69223;BME280;56514;51.816;-0.026;2023-03-03T14:35:19;102328.59;;;9.52;54.75
69223;BME280;56514;51.816;-0.026;2023-03-03T14:38:12;102326.63;;;9.34;55.05
69223;BME280;56514;51.816;-0.026;2023-03-03T14:49:55;102320.41;;;9.14;55.57
69223;BME280;56514;51.816;-0.026;2023-03-03T14:53:15;102317.59;;;9.18;56.08
69223;BME280;56514;51.816;-0.026;2023-03-03T14:56:33;102325.28;;;9.24;56.59
69223;BME280;56514;51.816;-0.026;2023-03-03T14:59:21;102326.81;;;9.30;56.07
69223;BME280;56514;51.816;-0.026;2023-03-03T15:02:21;102322.88;;;9.18;56.44
69223;BME280;56514;51.816;-0.026;2023-03-03T15:05:29;102326.75;;;9.08;56.64
69223;BME280;56514;51.816;-0.026;2023-03-03T15:08:14;102330.88;;;9.15;56.23
69223;BME280;56514;51.816;-0.026;2023-03-03T15:11:20;102324.81;;;9.13;55.77
69223;BME280;56514;51.816;-0.026;2023-03-03T15:14:13;102315.84;;;9.19;55.71
69223;BME280;56514;51.816;-0.026;2023-03-03T15:17:17;102312.97;;;9.25;56.07
69223;BME280;56514;51.816;-0.026;2023-03-03T15:29:18;102304.28;;;9.23;56.23
69223;BME280;56514;51.816;-0.026;2023-03-03T15:53:37;102281.41;;;9.68;52.25
69223;BME280;56514;51.816;-0.026;2023-03-03T16:02:45;102275.19;;;9.92;51.61
69223;BME280;56514;51.816;-0.026;2023-03-03T16:05:49;102273.88;;;10.02;51.63
69223;BME280;56514;51.816;-0.026;2023-03-03T16:08:52;102280.72;;;10.06;51.04
69223;BME280;56514;51.816;-0.026;2023-03-03T16:18:15;102268.25;;;9.89;50.71
69223;BME280;56514;51.816;-0.026;2023-03-03T16:27:36;102277.94;;;9.89;51.46
69223;BME280;56514;51.816;-0.026;2023-03-03T16:30:33;102283.88;;;9.94;51.56
69223;BME280;56514;51.816;-0.026;2023-03-03T16:33:30;102276.66;;;9.99;51.89
69223;BME280;56514;51.816;-0.026;2023-03-03T16:39:16;102284.31;;;10.05;51.10
69223;BME280;56514;51.816;-0.026;2023-03-03T16:45:23;102281.84;;;10.00;51.50
69223;BME280;56514;51.816;-0.026;2023-03-03T16:48:20;102285.63;;;9.95;51.67
69223;BME280;56514;51.816;-0.026;2023-03-03T16:51:31;102288.06;;;9.78;51.92
69223;BME280;56514;51.816;-0.026;2023-03-03T16:54:46;102281.53;;;9.65;51.57
69223;BME280;56514;51.816;-0.026;2023-03-03T16:57:58;102287.41;;;9.50;52.05
69223;BME280;56514;51.816;-0.026;2023-03-03T17:01:11;102289.72;;;9.36;52.49
69223;BME280;56514;51.816;-0.026;2023-03-03T17:04:00;102286.75;;;9.22;53.28
69223;BME280;56514;51.816;-0.026;2023-03-03T17:07:00;102288.75;;;9.15;53.05
69223;BME280;56514;51.816;-0.026;2023-03-03T17:13:04;102292.91;;;8.98;53.95
69223;BME280;56514;51.816;-0.026;2023-03-03T17:40:16;102320.84;;;8.52;55.70
69223;BME280;56514;51.816;-0.026;2023-03-03T17:43:13;102322.66;;;8.50;55.18
69223;BME280;56514;51.816;-0.026;2023-03-03T17:46:02;102332.28;;;8.51;55.59
69223;BME280;56514;51.816;-0.026;2023-03-03T17:49:10;102321.78;;;8.51;55.46
69223;BME280;56514;51.816;-0.026;2023-03-03T17:55:50;102334.31;;;8.43;55.38
69223;BME280;56514;51.816;-0.026;2023-03-03T17:59:20;102338.84;;;8.38;54.93
69223;BME280;56514;51.816;-0.026;2023-03-03T18:09:16;102342.91;;;8.22;54.61
69223;BME280;56514;51.816;-0.026;2023-03-03T18:18:23;102350.34;;;8.08;53.81
69223;BME280;56514;51.816;-0.026;2023-03-03T18:27:27;102353.13;;;8.04;54.22
69223;BME280;56514;51.816;-0.026;2023-03-03T18:33:09;102364.84;;;7.94;54.75
69223;BME280;56514;51.816;-0.026;2023-03-03T18:36:11;102362.22;;;7.94;54.81
69223;BME280;56514;51.816;-0.026;2023-03-03T18:39:00;102364.84;;;7.94;54.47
69223;BME280;56514;51.816;-0.026;2023-03-03T18:44:53;102361.44;;;7.90;54.95
69223;BME280;56514;51.816;-0.026;2023-03-03T18:48:14;102374.53;;;7.92;55.43
69223;BME280;56514;51.816;-0.026;2023-03-03T18:51:00;102378.81;;;7.94;55.08
69223;BME280;56514;51.816;-0.026;2023-03-03T18:59:52;102385.78;;;7.97;55.81
69223;BME280;56514;51.816;-0.026;2023-03-03T19:02:41;102388.34;;;7.98;55.71
69223;BME280;56514;51.816;-0.026;2023-03-03T19:05:47;102393.50;;;8.01;56.26
69223;BME280;56514;51.816;-0.026;2023-03-03T19:08:52;102397.81;;;8.04;56.02
69223;BME280;56514;51.816;-0.026;2023-03-03T19:11:48;102390.78;;;8.04;56.52
69223;BME280;56514;51.816;-0.026;2023-03-03T19:14:37;102391.53;;;8.08;56.28
69223;BME280;56514;51.816;-0.026;2023-03-03T19:20:15;102399.22;;;8.14;55.84
69223;BME280;56514;51.816;-0.026;2023-03-03T19:23:05;102395.75;;;8.13;55.81
69223;BME280;56514;51.816;-0.026;2023-03-03T19:35:53;102403.06;;;8.04;56.82
69223;BME280;56514;51.816;-0.026;2023-03-03T19:48:05;102404.63;;;8.09;56.17